createdAt,value
2023-10-12T00:03:16.661Z,100089
2023-10-12T00:09:10.857Z,100093
2023-10-12T00:15:04.385Z,100090
2023-10-12T00:20:59.349Z,100091
2023-10-12T00:26:50.813Z,100107
2023-10-12T00:32:43.246Z,100114
2023-10-12T00:38:34.375Z,100117
2023-10-12T00:44:28.354Z,100126
2023-10-12T00:50:22.556Z,100115
2023-10-12T00:56:16.786Z,100128
2023-10-12T01:02:08.585Z,100123
2023-10-12T01:08:00.760Z,100113
2023-10-12T01:13:53.689Z,100101
2023-10-12T01:19:46.657Z,100091
2023-10-12T01:25:39.064Z,100054
2023-10-12T01:31:32.608Z,100057
2023-10-12T01:37:24.638Z,100064
2023-10-12T01:43:17.438Z,100078
2023-10-12T01:49:09.913Z,100090
2023-10-12T01:55:03.101Z,100081
2023-10-12T02:00:57.139Z,100072
2023-10-12T02:06:50.956Z,100102
2023-10-12T02:12:44.627Z,100115
2023-10-12T02:18:39.577Z,100154
2023-10-12T02:24:32.437Z,100158
2023-10-12T02:30:27.328Z,100178
2023-10-12T02:36:19.929Z,100152
2023-10-12T02:42:12.548Z,100177
2023-10-12T02:48:04.943Z,100178
2023-10-12T02:53:55.674Z,100201
2023-10-12T02:59:47.983Z,100211
2023-10-12T03:05:39.921Z,100220
2023-10-12T03:11:32.110Z,100232
2023-10-12T03:17:23.073Z,100229
2023-10-12T03:23:18.902Z,100244
2023-10-12T03:29:12.803Z,100243
2023-10-12T03:35:04.958Z,100259
2023-10-12T03:40:59.916Z,100229
2023-10-12T03:46:53.328Z,100206
2023-10-12T03:52:46.916Z,100207
2023-10-12T03:58:41.422Z,100173
2023-10-12T04:04:34.310Z,100163
2023-10-12T04:10:28.938Z,100126
2023-10-12T04:16:21.768Z,100110
2023-10-12T04:22:14.356Z,100082
2023-10-12T04:28:07.390Z,100098
2023-10-12T04:33:57.862Z,100160
2023-10-12T04:39:49.260Z,100191
2023-10-12T04:45:43.311Z,100207
2023-10-12T04:51:35.246Z,100206
2023-10-12T04:57:31.142Z,100206
2023-10-12T05:03:27.387Z,100223
2023-10-12T05:09:20.132Z,100204
2023-10-12T05:15:15.042Z,100192
2023-10-12T05:21:10.820Z,100207
2023-10-12T05:27:05.711Z,100270
2023-10-12T05:33:01.706Z,100232
2023-10-12T05:38:55.862Z,100268
2023-10-12T05:44:47.799Z,100263
2023-10-12T05:50:40.938Z,100260
2023-10-12T05:56:35.302Z,100281
2023-10-12T06:02:28.313Z,100285
2023-10-12T06:08:21.340Z,100260
2023-10-12T06:14:14.626Z,100260
2023-10-12T06:20:13.361Z,100246
2023-10-12T06:26:14.799Z,100249
2023-10-12T06:32:08.103Z,100241
2023-10-12T06:38:02.672Z,100277
2023-10-12T06:43:55.484Z,100293
2023-10-12T06:49:48.666Z,100295
2023-10-12T06:55:41.497Z,100314
2023-10-12T07:01:36.754Z,100318
2023-10-12T07:07:30.560Z,100328
2023-10-12T07:13:24.328Z,100348
2023-10-12T07:19:20.488Z,100343
2023-10-12T07:25:13.093Z,100358
2023-10-12T07:31:08.058Z,100352
2023-10-12T07:37:03.287Z,100363
2023-10-12T07:42:55.544Z,100380
2023-10-12T07:48:48.368Z,100386
2023-10-12T07:54:41.465Z,100391
2023-10-12T08:00:36.092Z,100373
2023-10-12T08:06:30.221Z,100361
2023-10-12T08:12:23.930Z,100368
2023-10-12T08:18:18.806Z,100380
2023-10-12T08:24:13.305Z,100377
2023-10-12T08:30:06.396Z,100383
2023-10-12T08:35:56.415Z,100368
2023-10-12T08:41:47.815Z,100353
2023-10-12T08:47:40.325Z,100346
2023-10-12T08:53:33.599Z,100345
2023-10-12T08:59:28.444Z,100337
2023-10-12T09:05:23.772Z,100340
2023-10-12T09:11:21.582Z,100340
2023-10-12T09:17:18.498Z,100336
2023-10-12T09:23:19.527Z,100325
2023-10-12T09:29:11.656Z,100325
2023-10-12T09:35:04.272Z,100322
2023-10-12T09:41:03.832Z,100322
2023-10-12T09:47:01.961Z,100318
2023-10-12T09:52:54.738Z,100328
2023-10-12T09:58:49.238Z,100336
2023-10-12T10:04:41.940Z,100303
2023-10-12T10:10:34.814Z,100295
2023-10-12T10:16:27.449Z,100308
2023-10-12T10:22:23.290Z,100322
2023-10-12T10:28:17.612Z,100321
2023-10-12T10:34:12.902Z,100318
2023-10-12T10:40:05.181Z,100329
2023-10-12T10:45:58.457Z,100329
2023-10-12T10:51:51.409Z,100325
2023-10-12T10:57:45.319Z,100319
2023-10-12T11:03:40.045Z,100321
2023-10-12T11:09:34.190Z,100321
2023-10-12T11:15:27.149Z,100314
2023-10-12T11:21:21.538Z,100307
2023-10-12T11:27:14.740Z,100294
2023-10-12T11:33:09.313Z,100282
2023-10-12T11:39:03.334Z,100284
2023-10-12T11:44:56.807Z,100267
2023-10-12T11:50:48.585Z,100260
2023-10-12T11:56:41.435Z,100251
2023-10-12T12:02:36.744Z,100247
2023-10-12T12:08:30.197Z,100244
2023-10-12T12:14:24.413Z,100238
2023-10-12T12:20:17.008Z,100230
2023-10-12T12:26:09.722Z,100244
2023-10-12T12:32:02.276Z,100252
2023-10-12T12:37:53.112Z,100257
2023-10-12T12:43:46.638Z,100247
2023-10-12T12:49:45.967Z,100240
2023-10-12T12:55:38.826Z,100234
2023-10-12T13:01:32.173Z,100266
2023-10-12T13:07:26.956Z,100275
2023-10-12T13:13:21.822Z,100270
2023-10-12T13:19:14.290Z,100235
2023-10-12T13:25:06.860Z,100253
2023-10-12T13:30:59.809Z,100263
2023-10-12T13:36:53.966Z,100288
2023-10-12T13:42:47.980Z,100252
2023-10-12T13:48:42.693Z,100244
2023-10-12T13:54:39.343Z,100240
2023-10-12T14:00:33.982Z,100251
2023-10-12T14:06:28.444Z,100268
2023-10-12T14:12:26.146Z,100260
2023-10-12T14:18:17.589Z,100262
2023-10-12T14:24:12.051Z,100272
2023-10-12T14:30:06.035Z,100267
2023-10-12T14:35:58.231Z,100255
2023-10-12T14:41:52.731Z,100260
2023-10-12T14:47:46.128Z,100251
2023-10-12T14:53:38.470Z,100254
2023-10-12T14:59:30.360Z,100253
2023-10-12T15:05:22.704Z,100242
2023-10-12T15:11:17.503Z,100225
2023-10-12T15:17:10.111Z,100234
2023-10-12T15:23:02.043Z,100224
2023-10-12T15:28:56.705Z,100222
2023-10-12T15:34:48.531Z,100219
2023-10-12T15:40:43.046Z,100212
2023-10-12T15:46:37.775Z,100210
2023-10-12T15:52:30.040Z,100202
2023-10-12T15:58:24.378Z,100202
2023-10-12T16:04:16.914Z,100208
2023-10-12T16:10:07.603Z,100200
2023-10-12T16:15:59.006Z,100215
2023-10-12T16:21:51.840Z,100223
2023-10-12T16:27:42.136Z,100226
2023-10-12T16:33:34.229Z,100237
2023-10-12T16:39:28.751Z,100222
2023-10-12T16:45:20.831Z,100220
2023-10-12T16:51:15.426Z,100232
2023-10-12T16:57:09.447Z,100241
2023-10-12T17:03:01.631Z,100244
2023-10-12T17:08:56.205Z,100243
2023-10-12T17:14:48.926Z,100247
2023-10-12T17:20:41.733Z,100261
2023-10-12T17:26:34.358Z,100262
2023-10-12T17:32:26.800Z,100259
2023-10-12T17:38:21.287Z,100267
2023-10-12T17:44:14.745Z,100272
2023-10-12T17:50:09.434Z,100272
2023-10-12T17:56:03.997Z,100271
2023-10-12T18:01:56.346Z,100268
2023-10-12T18:07:48.615Z,100262
2023-10-12T18:13:42.438Z,100277
2023-10-12T18:19:35.077Z,100271
2023-10-12T18:25:30.058Z,100270
2023-10-12T18:31:22.008Z,100276
2023-10-12T18:37:18.506Z,100275
2023-10-12T18:43:11.545Z,100283
2023-10-12T18:49:05.611Z,100292
2023-10-12T18:55:00.276Z,100294
2023-10-12T19:00:52.099Z,100301
2023-10-12T19:06:44.365Z,100287
2023-10-12T19:12:36.610Z,100278
2023-10-12T19:18:28.392Z,100294
2023-10-12T19:24:20.593Z,100303
2023-10-12T19:30:12.281Z,100301
2023-10-12T19:36:06.719Z,100299
2023-10-12T19:41:59.643Z,100299
2023-10-12T19:47:51.835Z,100294
2023-10-12T19:53:43.694Z,100296
2023-10-12T19:59:36.562Z,100299
2023-10-12T20:05:29.888Z,100305
2023-10-12T20:11:22.357Z,100303
2023-10-12T20:17:14.252Z,100304
2023-10-12T20:23:04.709Z,100308
2023-10-12T20:28:55.588Z,100307
2023-10-12T20:34:47.449Z,100317
2023-10-12T20:40:42.125Z,100318
2023-10-12T20:46:39.484Z,100315
2023-10-12T20:52:32.196Z,100308
2023-10-12T20:58:26.348Z,100293
2023-10-12T21:04:19.543Z,100295
2023-10-12T21:10:14.385Z,100280
2023-10-12T21:16:08.704Z,100275
2023-10-12T21:22:01.432Z,100270
2023-10-12T21:27:56.707Z,100276
2023-10-12T21:33:50.629Z,100274
2023-10-12T21:39:43.011Z,100267
2023-10-12T21:45:35.018Z,100268
2023-10-12T21:51:29.626Z,100267
2023-10-12T21:57:23.832Z,100266
2023-10-12T22:03:16.163Z,100265
2023-10-12T22:09:08.097Z,100255
2023-10-12T22:15:01.342Z,100265
2023-10-12T22:20:54.459Z,100253
2023-10-12T22:26:46.397Z,100262
2023-10-12T22:32:37.244Z,100261
2023-10-12T22:38:30.450Z,100244
2023-10-12T22:44:20.867Z,100249
2023-10-12T22:50:12.650Z,100257
2023-10-12T22:56:03.411Z,100257
2023-10-12T23:01:58.946Z,100247
2023-10-12T23:07:52.919Z,100249
2023-10-12T23:13:44.303Z,100251
2023-10-12T23:19:37.654Z,100247
2023-10-12T23:25:31.085Z,100237
2023-10-12T23:31:23.823Z,100245
2023-10-12T23:37:17.565Z,100249
2023-10-12T23:43:09.096Z,100235
2023-10-12T23:49:01.080Z,100242
2023-10-12T23:54:54.470Z,100241
